<?xml version="1.0" encoding="UTF-8"?>
<gpx xmlns="http://www.topografix.com/GPX/1/1" xmlns:gpsies="http://www.gpsies.com/GPX/1/0" creator="GPSies http://www.gpsies.com - Effort_6288178102" version="1.1" xmlns:xsi="http://www.w3.org/2001/XMLSchema-instance" xsi:schemaLocation="http://www.topografix.com/GPX/1/1 http://www.topografix.com/GPX/1/1/gpx.xsd http://www.gpsies.com/GPX/1/0 http://www.gpsies.com/gpsies.xsd">
  <metadata>
    <name>Effort_6288178102</name>
    <link href="http://www.gpsies.com/">
      <text>Effort_6288178102 on GPSies.com</text>
    </link>
    <time>2015-04-29T18:38:56Z</time>
  </metadata>
  <trk>
    <name>Effort_6288178102 on GPSies.com</name>
    <trkseg>
      <trkpt lat="57.67179000" lon="12.03015000">
        <ele>105.00000</ele>
        <time>2015-03-15T11:13:56Z</time>
      </trkpt>
      <trkpt lat="57.67157000" lon="12.03061000">
        <ele>104.00000</ele>
        <time>2015-03-15T11:13:59Z</time>
      </trkpt>
      <trkpt lat="57.67140000" lon="12.03067000">
        <ele>101.00000</ele>
        <time>2015-03-15T11:14:02Z</time>
      </trkpt>
      <trkpt lat="57.67137000" lon="12.03053000">
        <ele>100.00000</ele>
        <time>2015-03-15T11:14:05Z</time>
      </trkpt>
      <trkpt lat="57.67119000" lon="12.03037000">
        <ele>96.000000</ele>
        <time>2015-03-15T11:14:08Z</time>
      </trkpt>
      <trkpt lat="57.67108000" lon="12.03026000">
        <ele>93.000000</ele>
        <time>2015-03-15T11:14:11Z</time>
      </trkpt>
      <trkpt lat="57.67091000" lon="12.03020000">
        <ele>89.000000</ele>
        <time>2015-03-15T11:14:14Z</time>
      </trkpt>
      <trkpt lat="57.67076000" lon="12.03023000">
        <ele>86.000000</ele>
        <time>2015-03-15T11:14:17Z</time>
      </trkpt>
      <trkpt lat="57.67057000" lon="12.03015000">
        <ele>81.000000</ele>
        <time>2015-03-15T11:14:20Z</time>
      </trkpt>
      <trkpt lat="57.67036000" lon="12.03014000">
        <ele>78.000000</ele>
        <time>2015-03-15T11:14:23Z</time>
      </trkpt>
      <trkpt lat="57.67021000" lon="12.03010000">
        <ele>77.000000</ele>
        <time>2015-03-15T11:14:26Z</time>
      </trkpt>
      <trkpt lat="57.67010000" lon="12.03007000">
        <ele>76.000000</ele>
        <time>2015-03-15T11:14:29Z</time>
      </trkpt>
      <trkpt lat="57.67000000" lon="12.02987000">
        <ele>74.000000</ele>
        <time>2015-03-15T11:14:32Z</time>
      </trkpt>
      <trkpt lat="57.67003000" lon="12.02969000">
        <ele>73.000000</ele>
        <time>2015-03-15T11:14:36Z</time>
      </trkpt>
      <trkpt lat="57.67009000" lon="12.02941000">
        <ele>71.000000</ele>
        <time>2015-03-15T11:14:39Z</time>
      </trkpt>
      <trkpt lat="57.67020000" lon="12.02912000">
        <ele>69.000000</ele>
        <time>2015-03-15T11:14:42Z</time>
      </trkpt>
      <trkpt lat="57.67028000" lon="12.02892000">
        <ele>67.000000</ele>
        <time>2015-03-15T11:14:45Z</time>
      </trkpt>
      <trkpt lat="57.67044000" lon="12.02870000">
        <ele>66.000000</ele>
        <time>2015-03-15T11:14:48Z</time>
      </trkpt>
      <trkpt lat="57.67055000" lon="12.02826000">
        <ele>67.000000</ele>
        <time>2015-03-15T11:14:51Z</time>
      </trkpt>
      <trkpt lat="57.67064000" lon="12.02771000">
        <ele>66.000000</ele>
        <time>2015-03-15T11:14:54Z</time>
      </trkpt>
      <trkpt lat="57.67069000" lon="12.02721000">
        <ele>65.000000</ele>
        <time>2015-03-15T11:14:57Z</time>
      </trkpt>
      <trkpt lat="57.67072000" lon="12.02699000">
        <ele>66.000000</ele>
        <time>2015-03-15T11:14:59Z</time>
      </trkpt>
    </trkseg>
  </trk>
</gpx>

